Time;durP1;ratioP1;P1;durP2;ratioP2;P2;SDS_P1;SDS_P2;PMS_P1;PMS_P2;Temp;Humidity;BMP_temperature;BMP_pressure;BME280_temperature;BME280_humidity;BME280_pressure;Samples;Min_cycle;Max_cycle;Signal;HPM_P1;HPM_P2
2021/11/21 00:01:05;;;;;;;37.90;19.60;;;8.30;98.50;;;;;;5013874;28;20493;-78
2021/11/21 00:03:33;;;;;;;38.50;19.67;;;8.20;98.50;;;;;;4993349;28;20413;-78
2021/11/21 00:05:59;;;;;;;37.40;19.23;;;8.30;98.60;;;;;;5011624;28;20425;-76
2021/11/21 00:08:25;;;;;;;34.30;20.30;;;8.20;98.60;;;;;;5027459;28;20442;-77
2021/11/21 00:10:52;;;;;;;40.07;22.63;;;8.20;98.60;;;;;;5012560;28;20170;-79
2021/11/21 00:13:20;;;;;;;37.33;18.90;;;8.20;98.60;;;;;;5011736;28;20414;-78
2021/11/21 00:15:46;;;;;;;38.10;21.60;;;8.20;98.60;;;;;;4992920;28;20441;-74
2021/11/21 00:18:12;;;;;;;36.73;19.27;;;8.20;98.60;;;;;;5054811;22;20860;-75
2021/11/21 00:20:39;;;;;;;36.47;20.10;;;8.10;98.60;;;;;;5011495;28;20553;-75
2021/11/21 00:23:05;;;;;;;37.23;20.43;;;8.20;98.80;;;;;;5011213;28;20410;-76
2021/11/21 00:25:31;;;;;;;31.17;18.93;;;8.20;98.70;;;;;;5011355;28;20445;-75
2021/11/21 00:27:57;;;;;;;34.00;19.20;;;8.10;98.70;;;;;;5010593;28;20433;-75
2021/11/21 00:30:22;;;;;;;32.03;18.17;;;8.20;98.60;;;;;;5010849;28;20757;-75
2021/11/21 00:32:48;;;;;;;34.07;19.53;;;8.20;98.70;;;;;;5010434;28;20250;-77
2021/11/21 00:35:14;;;;;;;32.13;18.40;;;8.20;98.80;;;;;;5010622;28;20171;-77
2021/11/21 00:37:40;;;;;;;38.03;19.80;;;8.20;98.50;;;;;;5010538;28;20557;-75
2021/11/21 00:40:07;;;;;;;35.50;18.43;;;8.10;98.40;;;;;;5010561;28;20548;-76
2021/11/21 00:42:33;;;;;;;34.30;18.50;;;8.10;98.40;;;;;;5009906;28;20221;-74
2021/11/21 00:44:59;;;;;;;32.23;17.50;;;8.10;98.50;;;;;;4976470;28;20479;-75
2021/11/21 00:47:25;;;;;;;34.63;18.57;;;8.10;98.40;;;;;;5012356;28;20490;-76
2021/11/21 00:49:51;;;;;;;35.33;18.20;;;8.10;98.30;;;;;;4996372;28;20429;-75
2021/11/21 00:52:17;;;;;;;27.70;16.80;;;8.10;98.20;;;;;;5013488;28;20410;-75
2021/11/21 00:54:56;;;;;;;27.40;17.47;;;8.10;98.10;;;;;;5012222;28;20541;-75
2021/11/21 00:57:22;;;;;;;32.40;17.53;;;8.10;98.20;;;;;;5013886;28;20171;-76
2021/11/21 00:59:48;;;;;;;32.13;17.10;;;8.10;98.30;;;;;;5014422;28;20816;-76
2021/11/21 01:02:16;;;;;;;28.90;15.97;;;8.10;98.20;;;;;;5018092;28;20163;-74
2021/11/21 01:04:42;;;;;;;34.67;17.50;;;8.20;98.20;;;;;;5015022;28;20437;-75
2021/11/21 01:07:10;;;;;;;28.90;14.53;;;8.20;98.00;;;;;;5013667;28;20585;-75
2021/11/21 01:09:37;;;;;;;28.47;15.97;;;8.20;97.90;;;;;;5013521;28;20446;-75
2021/11/21 01:12:04;;;;;;;33.50;16.53;;;8.20;97.70;;;;;;5013988;28;20799;-75
2021/11/21 01:14:30;;;;;;;26.57;16.10;;;8.20;97.70;;;;;;5013170;28;20414;-76
2021/11/21 01:16:56;;;;;;;28.87;16.37;;;8.20;97.80;;;;;;5014009;28;20430;-73
2021/11/21 01:19:22;;;;;;;33.13;17.10;;;8.30;97.70;;;;;;5013975;28;20472;-76
2021/11/21 01:21:49;;;;;;;31.10;17.17;;;8.30;97.70;;;;;;5013992;28;20398;-76
2021/11/21 01:24:15;;;;;;;25.90;16.17;;;8.30;97.50;;;;;;5012698;28;20616;-76
2021/11/21 01:26:43;;;;;;;30.33;16.60;;;8.40;97.50;;;;;;5013533;28;20547;-76
2021/11/21 01:29:09;;;;;;;29.10;16.40;;;8.40;97.30;;;;;;4995502;28;20739;-75
2021/11/21 01:31:35;;;;;;;27.03;16.03;;;8.40;97.20;;;;;;5012405;28;20474;-75
2021/11/21 01:34:01;;;;;;;27.87;14.40;;;8.40;97.40;;;;;;5013252;28;20402;-75
2021/11/21 01:36:26;;;;;;;24.80;15.40;;;8.40;97.30;;;;;;5011743;28;20514;-75
2021/11/21 01:38:53;;;;;;;27.70;14.90;;;8.40;97.30;;;;;;4995549;28;20191;-75
2021/11/21 01:41:19;;;;;;;28.03;14.90;;;8.50;97.20;;;;;;5013092;28;20190;-75
2021/11/21 01:43:45;;;;;;;27.00;15.40;;;8.50;97.20;;;;;;4995831;28;20464;-75
2021/11/21 01:46:11;;;;;;;28.10;14.50;;;8.50;97.20;;;;;;5014773;28;20920;-75
2021/11/21 01:48:37;;;;;;;27.00;14.43;;;8.50;97.10;;;;;;5015391;28;20179;-76
2021/11/21 01:51:06;;;;;;;30.43;16.00;;;8.50;97.10;;;;;;5015290;28;20186;-75
2021/11/21 01:53:31;;;;;;;26.13;14.10;;;8.50;97.20;;;;;;5012998;28;20175;-75
2021/11/21 01:55:58;;;;;;;29.10;15.43;;;8.50;97.10;;;;;;5011072;28;20504;-74
2021/11/21 01:58:24;;;;;;;31.83;17.23;;;8.50;97.10;;;;;;4992722;28;20245;-75
2021/11/21 02:00:51;;;;;;;30.80;16.00;;;8.50;97.40;;;;;;5012167;28;20469;-75
2021/11/21 02:03:18;;;;;;;27.30;14.70;;;8.50;96.80;;;;;;4994686;28;20402;-76
2021/11/21 02:05:47;;;;;;;26.13;14.87;;;8.50;97.10;;;;;;5012189;28;20811;-74
2021/11/21 02:08:13;;;;;;;27.77;15.20;;;8.50;97.10;;;;;;5012462;28;20441;-75
2021/11/21 02:10:40;;;;;;;26.43;14.37;;;8.50;97.00;;;;;;4994733;28;20425;-76
2021/11/21 02:13:08;;;;;;;32.20;15.20;;;8.50;96.90;;;;;;5011777;28;20557;-75
2021/11/21 02:15:35;;;;;;;25.30;16.07;;;8.40;96.90;;;;;;5013360;28;20448;-75
2021/11/21 02:18:01;;;;;;;31.50;15.83;;;8.40;96.90;;;;;;5015960;28;20963;-73
2021/11/21 02:20:35;;;;;;;26.83;13.87;;;8.30;96.90;;;;;;5012080;28;20461;-76
2021/11/21 02:23:03;;;;;;;26.17;14.83;;;8.30;97.00;;;;;;5011942;28;20405;-75
2021/11/21 02:25:29;;;;;;;28.10;14.53;;;8.30;97.10;;;;;;5012119;28;20468;-75
2021/11/21 02:27:55;;;;;;;23.43;15.20;;;8.30;97.10;;;;;;5012493;28;20426;-75
2021/11/21 02:30:20;;;;;;;22.07;12.83;;;8.30;97.00;;;;;;5011803;28;20167;-74
2021/11/21 02:32:48;;;;;;;27.77;14.63;;;8.30;97.00;;;;;;5011765;28;20237;-76
2021/11/21 02:35:15;;;;;;;24.10;14.60;;;8.30;97.00;;;;;;5011704;28;20180;-74
2021/11/21 02:37:41;;;;;;;26.53;14.20;;;8.30;97.00;;;;;;5012324;28;20445;-75
2021/11/21 02:40:08;;;;;;;24.03;12.70;;;8.30;97.00;;;;;;5011825;28;20468;-75
2021/11/21 02:42:35;;;;;;;23.40;13.23;;;8.40;97.00;;;;;;5011119;28;20436;-74
2021/11/21 02:45:03;;;;;;;24.73;13.60;;;8.40;96.90;;;;;;5011700;28;20437;-75
2021/11/21 02:47:32;;;;;;;22.60;12.60;;;8.40;96.80;;;;;;5011773;28;20417;-75
2021/11/21 02:50:12;;;;;;;19.47;13.30;;;8.30;96.70;;;;;;5011720;28;20425;-74
2021/11/21 02:52:38;;;;;;;23.40;15.50;;;8.30;97.20;;;;;;4957992;28;20423;-75
2021/11/21 02:55:05;;;;;;;19.37;12.90;;;8.30;96.80;;;;;;4990273;28;20502;-75
2021/11/21 02:57:31;;;;;;;26.27;14.17;;;8.30;96.70;;;;;;4990689;28;20415;-75
2021/11/21 02:59:57;;;;;;;20.53;12.07;;;8.40;96.90;;;;;;4991602;28;20473;-75
2021/11/21 03:02:22;;;;;;;22.40;13.20;;;8.40;96.90;;;;;;4991436;28;20171;-74
2021/11/21 03:04:51;;;;;;;26.97;14.20;;;8.40;96.80;;;;;;4991680;28;20411;-74
2021/11/21 03:07:18;;;;;;;24.33;14.40;;;8.50;96.80;;;;;;4991677;28;20411;-75
2021/11/21 03:09:49;;;;;;;24.30;14.10;;;8.50;96.80;;;;;;4991177;28;20478;-76
2021/11/21 03:12:17;;;;;;;26.70;14.77;;;8.50;96.70;;;;;;5010998;28;20425;-75
2021/11/21 03:14:43;;;;;;;28.20;15.07;;;8.50;96.80;;;;;;5011130;28;20425;-74
2021/11/21 03:17:10;;;;;;;27.37;15.57;;;8.50;96.80;;;;;;4993575;28;20406;-75
2021/11/21 03:19:36;;;;;;;24.53;14.47;;;8.50;96.90;;;;;;5011097;28;20265;-74
2021/11/21 03:22:02;;;;;;;29.13;15.53;;;8.50;97.00;;;;;;5010425;28;20695;-75
2021/11/21 03:24:28;;;;;;;30.73;19.73;;;8.50;97.10;;;;;;5011428;28;20217;-75
2021/11/21 03:26:54;;;;;;;27.33;15.60;;;8.50;97.20;;;;;;5010386;28;20422;-75
2021/11/21 03:29:20;;;;;;;26.53;14.57;;;8.40;97.40;;;;;;5011312;28;20198;-75
2021/11/21 03:31:45;;;;;;;31.93;16.07;;;8.40;97.50;;;;;;5010214;28;20174;-75
2021/11/21 03:34:11;;;;;;;28.40;15.63;;;8.40;97.60;;;;;;5010986;28;20702;-75
2021/11/21 03:36:39;;;;;;;26.53;15.23;;;8.40;97.80;;;;;;5010923;28;20236;-75
2021/11/21 03:39:06;;;;;;;28.60;14.57;;;8.40;97.90;;;;;;5011530;28;20525;-75
2021/11/21 03:41:34;;;;;;;36.17;16.30;;;8.30;97.90;;;;;;4990883;28;20185;-75
2021/11/21 03:43:59;;;;;;;30.20;16.20;;;8.30;98.10;;;;;;5010985;28;20781;-75
2021/11/21 03:46:25;;;;;;;29.17;16.30;;;8.30;98.20;;;;;;5011303;28;20420;-75
2021/11/21 03:48:51;;;;;;;31.13;15.30;;;8.30;98.30;;;;;;5011133;28;20272;-75
2021/11/21 03:51:17;;;;;;;30.47;15.10;;;8.30;98.40;;;;;;5009812;28;20186;-75
2021/11/21 03:53:43;;;;;;;35.03;17.00;;;8.30;98.50;;;;;;5010147;28;20428;-75
2021/11/21 03:56:08;;;;;;;30.53;16.80;;;8.30;98.60;;;;;;5009696;28;20254;-74
2021/11/21 03:58:34;;;;;;;30.57;16.23;;;8.20;98.50;;;;;;5009055;28;20191;-74
2021/11/21 04:01:00;;;;;;;27.67;16.43;;;8.20;98.70;;;;;;5009994;28;20206;-74
2021/11/21 04:03:26;;;;;;;29.63;16.40;;;8.20;98.70;;;;;;5010613;28;20533;-75
2021/11/21 04:05:52;;;;;;;24.50;14.33;;;8.20;98.70;;;;;;5011408;28;20178;-74
2021/11/21 04:08:17;;;;;;;30.87;14.97;;;8.20;99.20;;;;;;5010816;28;20183;-74
2021/11/21 04:10:43;;;;;;;27.10;15.27;;;8.20;98.80;;;;;;5010763;28;20607;-74
2021/11/21 04:13:10;;;;;;;33.43;15.30;;;8.20;98.80;;;;;;5009872;28;20171;-76
2021/11/21 04:15:36;;;;;;;26.70;15.60;;;8.20;99.20;;;;;;5010858;28;20206;-75
2021/11/21 04:18:02;;;;;;;28.63;15.60;;;8.20;98.90;;;;;;5010192;28;20457;-75
2021/11/21 04:20:28;;;;;;;30.43;15.30;;;8.20;98.80;;;;;;5011256;28;20457;-75
2021/11/21 04:22:54;;;;;;;28.00;14.10;;;8.20;98.90;;;;;;5012760;28;20485;-75
2021/11/21 04:25:20;;;;;;;26.37;13.77;;;8.20;98.90;;;;;;5014750;28;20425;-75
2021/11/21 04:27:45;;;;;;;25.57;13.77;;;8.20;98.90;;;;;;5014283;28;20194;-74
2021/11/21 04:30:14;;;;;;;25.87;13.90;;;8.20;98.90;;;;;;5014755;28;20406;-74
2021/11/21 04:32:42;;;;;;;22.43;12.77;;;8.20;99.00;;;;;;5013991;28;20167;-74
2021/11/21 04:35:11;;;;;;;24.90;14.50;;;8.20;98.90;;;;;;5014301;28;20406;-75
2021/11/21 04:37:37;;;;;;;25.03;14.67;;;8.20;98.90;;;;;;5013964;28;20417;-75
2021/11/21 04:40:06;;;;;;;27.50;13.90;;;8.20;98.90;;;;;;5014157;28;20500;-75
2021/11/21 04:42:32;;;;;;;23.63;13.57;;;8.10;98.90;;;;;;5012231;28;20468;-74
2021/11/21 04:44:59;;;;;;;27.97;12.90;;;8.10;98.90;;;;;;5014658;28;20398;-75
2021/11/21 04:47:25;;;;;;;22.63;12.20;;;8.10;98.90;;;;;;5014641;28;20435;-75
2021/11/21 04:49:52;;;;;;;25.23;13.83;;;8.10;98.90;;;;;;5014455;28;20453;-75
2021/11/21 04:52:18;;;;;;;23.27;13.50;;;8.10;99.00;;;;;;5013568;28;20222;-75
2021/11/21 04:54:45;;;;;;;26.30;14.33;;;8.10;99.00;;;;;;5014363;28;20779;-75
2021/11/21 04:57:11;;;;;;;28.00;13.90;;;8.10;99.00;;;;;;5014008;28;20414;-75
2021/11/21 04:59:37;;;;;;;26.10;14.20;;;8.10;99.00;;;;;;5014127;28;20457;-75
2021/11/21 05:02:04;;;;;;;21.63;13.00;;;8.20;98.90;;;;;;5013754;28;20421;-75
2021/11/21 05:04:30;;;;;;;25.00;13.50;;;8.10;98.80;;;;;;5014159;28;20225;-75
2021/11/21 05:06:56;;;;;;;24.17;12.47;;;8.10;98.90;;;;;;5013898;28;20814;-75
2021/11/21 05:09:21;;;;;;;22.17;12.30;;;8.10;98.90;;;;;;5013518;28;20426;-74
2021/11/21 05:11:47;;;;;;;22.87;13.97;;;8.10;99.00;;;;;;5012828;28;20174;-75
2021/11/21 05:14:16;;;;;;;23.60;12.20;;;8.20;98.90;;;;;;5013736;28;20190;-74
2021/11/21 05:16:42;;;;;;;24.07;13.47;;;8.20;98.80;;;;;;5013981;28;20171;-74
2021/11/21 05:19:07;;;;;;;25.47;11.60;;;8.10;98.70;;;;;;4995639;28;20548;-74
2021/11/21 05:21:33;;;;;;;23.87;13.20;;;8.10;98.90;;;;;;5013324;28;20181;-75
2021/11/21 05:24:00;;;;;;;23.47;12.40;;;8.10;98.80;;;;;;5013139;28;20159;-75
2021/11/21 05:26:27;;;;;;;19.73;11.00;;;8.20;98.80;;;;;;4996627;28;20179;-75
2021/11/21 05:28:54;;;;;;;19.83;11.10;;;8.20;98.80;;;;;;5014715;28;20437;-73
2021/11/21 05:31:21;;;;;;;23.20;12.10;;;8.20;98.90;;;;;;5017015;28;20409;-73
2021/11/21 05:33:47;;;;;;;21.87;11.50;;;8.20;98.90;;;;;;5013439;28;20975;-75
2021/11/21 05:36:14;;;;;;;23.10;10.83;;;8.10;98.60;;;;;;5013317;28;20406;-74
2021/11/21 05:38:40;;;;;;;19.63;12.23;;;8.10;98.80;;;;;;4994884;28;20860;-74
2021/11/21 05:41:06;;;;;;;19.13;11.90;;;8.10;98.80;;;;;;5013294;28;20545;-74
2021/11/21 05:43:31;;;;;;;24.47;11.67;;;8.10;98.90;;;;;;5012101;28;20210;-74
2021/11/21 05:45:57;;;;;;;21.47;11.13;;;8.10;99.00;;;;;;5013069;28;20171;-74
2021/11/21 05:48:23;;;;;;;23.63;11.87;;;8.10;98.90;;;;;;5012895;28;20434;-73
2021/11/21 05:50:49;;;;;;;21.60;11.57;;;8.10;98.90;;;;;;4995542;28;20541;-74
2021/11/21 05:53:15;;;;;;;22.40;11.70;;;8.10;99.00;;;;;;5011875;28;20175;-74
2021/11/21 05:55:41;;;;;;;17.80;10.80;;;8.00;98.90;;;;;;4993390;28;20186;-74
2021/11/21 05:58:08;;;;;;;19.50;11.20;;;8.10;99.00;;;;;;5011742;28;20264;-74
2021/11/21 06:00:34;;;;;;;20.60;11.00;;;8.10;99.10;;;;;;4996430;28;20453;-74
2021/11/21 06:02:59;;;;;;;20.03;11.60;;;8.10;99.00;;;;;;5016104;28;20425;-74
2021/11/21 06:05:26;;;;;;;19.40;10.40;;;8.10;99.00;;;;;;5013574;28;20414;-74
2021/11/21 06:07:52;;;;;;;21.60;10.70;;;8.10;99.00;;;;;;5012239;28;20187;-74
2021/11/21 06:10:19;;;;;;;21.43;11.40;;;8.10;99.00;;;;;;5012146;28;20418;-74
2021/11/21 06:12:46;;;;;;;17.87;9.53;;;8.00;99.00;;;;;;5011734;28;20432;-74
2021/11/21 06:15:13;;;;;;;18.73;10.07;;;8.00;99.00;;;;;;5010716;28;20426;-74
2021/11/21 06:17:43;;;;;;;17.97;9.97;;;8.00;99.00;;;;;;5012110;28;20430;-76
2021/11/21 06:20:09;;;;;;;15.43;9.57;;;8.00;99.00;;;;;;4998018;23;20525;-82
2021/11/21 06:22:37;;;;;;;17.93;9.30;;;8.00;99.00;;;;;;5011423;28;20460;-83
2021/11/21 06:25:04;;;;;;;18.87;10.77;;;8.00;99.00;;;;;;5002647;28;20435;-83
2021/11/21 06:27:30;;;;;;;17.43;9.33;;;8.00;99.00;;;;;;5017706;28;20433;-82
2021/11/21 06:29:55;;;;;;;18.90;9.23;;;8.00;98.90;;;;;;5019915;28;20464;-82
2021/11/21 06:32:21;;;;;;;18.90;10.77;;;8.10;98.90;;;;;;5044411;22;20206;-73
2021/11/21 06:34:47;;;;;;;19.83;10.10;;;8.10;98.90;;;;;;5013096;28;20167;-73
2021/11/21 06:37:12;;;;;;;16.67;9.30;;;8.10;98.80;;;;;;5012544;28;20162;-73
2021/11/21 06:39:40;;;;;;;17.60;9.00;;;8.10;98.80;;;;;;5012585;28;20194;-73
2021/11/21 06:42:07;;;;;;;14.93;8.77;;;8.10;98.90;;;;;;5011705;28;20167;-74
2021/11/21 06:44:33;;;;;;;18.90;8.73;;;8.10;98.80;;;;;;5012107;28;20835;-75
2021/11/21 06:46:59;;;;;;;16.30;9.10;;;8.10;98.70;;;;;;5012631;28;20490;-74
2021/11/21 06:49:25;;;;;;;12.77;7.63;;;8.10;98.80;;;;;;4994633;28;20442;-74
2021/11/21 06:51:51;;;;;;;14.53;8.00;;;8.10;98.60;;;;;;4993919;28;20234;-73
2021/11/21 06:54:17;;;;;;;16.10;8.73;;;8.10;98.80;;;;;;5011869;28;20167;-73
2021/11/21 06:56:43;;;;;;;16.70;8.93;;;8.10;98.60;;;;;;5011206;28;20175;-74
2021/11/21 06:59:09;;;;;;;14.90;8.43;;;8.10;98.60;;;;;;4994813;28;20448;-72
2021/11/21 07:01:37;;;;;;;15.67;9.50;;;8.10;98.60;;;;;;5011735;28;20651;-74
2021/11/21 07:04:03;;;;;;;18.60;10.30;;;8.10;98.60;;;;;;4994904;28;20422;-73
2021/11/21 07:06:35;;;;;;;18.77;10.00;;;8.10;98.60;;;;;;5014545;28;20421;-73
2021/11/21 07:09:03;;;;;;;18.07;10.57;;;8.10;98.60;;;;;;5015225;28;20233;-72
2021/11/21 07:11:29;;;;;;;16.33;9.90;;;8.10;98.60;;;;;;4997821;28;20944;-72
2021/11/21 07:13:55;;;;;;;19.93;10.17;;;8.10;98.60;;;;;;5014513;28;20500;-73
2021/11/21 07:16:21;;;;;;;15.23;8.90;;;8.20;98.60;;;;;;5012107;28;20429;-72
2021/11/21 07:18:47;;;;;;;15.60;8.57;;;8.20;98.60;;;;;;5011676;28;20429;-73
2021/11/21 07:21:13;;;;;;;17.67;9.73;;;8.20;98.60;;;;;;5011180;28;20568;-73
2021/11/21 07:23:38;;;;;;;18.80;8.77;;;8.20;98.30;;;;;;5011659;28;20449;-73
2021/11/21 07:26:04;;;;;;;16.40;9.80;;;8.20;98.40;;;;;;5012064;28;20167;-72
2021/11/21 07:28:31;;;;;;;20.57;10.97;;;8.20;98.20;;;;;;5012105;28;20763;-73
2021/11/21 07:30:57;;;;;;;17.97;10.77;;;8.20;98.30;;;;;;5012162;28;20167;-73
2021/11/21 07:33:23;;;;;;;19.73;9.97;;;8.20;98.20;;;;;;5011612;28;20428;-73
2021/11/21 07:35:50;;;;;;;18.10;9.97;;;8.20;98.20;;;;;;5012130;28;20203;-74
2021/11/21 07:38:16;;;;;;;17.30;10.33;;;8.20;98.20;;;;;;5012943;28;20487;-73
2021/11/21 07:40:42;;;;;;;17.57;9.97;;;8.20;98.10;;;;;;4993890;28;21010;-73
2021/11/21 07:43:07;;;;;;;19.50;10.93;;;8.20;98.20;;;;;;5010852;28;20178;-73
2021/11/21 07:45:33;;;;;;;19.23;9.73;;;8.20;98.20;;;;;;5012112;28;20163;-73
2021/11/21 07:47:59;;;;;;;17.50;10.63;;;8.20;98.20;;;;;;4994759;28;20191;-74
2021/11/21 07:50:24;;;;;;;19.23;10.90;;;8.30;98.10;;;;;;5012235;28;20163;-73
2021/11/21 07:52:50;;;;;;;22.80;10.90;;;8.30;98.10;;;;;;5011674;28;20171;-73
2021/11/21 07:55:16;;;;;;;23.87;13.10;;;8.30;98.20;;;;;;5012671;28;20560;-74
2021/11/21 07:57:42;;;;;;;19.57;11.53;;;8.40;98.00;;;;;;4995777;28;20202;-72
2021/11/21 08:00:10;;;;;;;20.80;11.47;;;8.40;98.00;;;;;;4997620;28;20676;-74
2021/11/21 08:02:36;;;;;;;22.67;10.80;;;8.40;97.90;;;;;;5015482;28;20210;-73
2021/11/21 08:05:04;;;;;;;19.97;11.63;;;8.50;97.70;;;;;;4997816;28;20414;-73
2021/11/21 08:07:30;;;;;;;20.73;10.97;;;8.50;97.80;;;;;;5016177;28;20406;-74
2021/11/21 08:09:56;;;;;;;26.70;12.63;;;8.50;97.70;;;;;;5015597;28;20453;-74
2021/11/21 08:12:22;;;;;;;21.87;11.30;;;8.60;97.70;;;;;;5015504;28;20827;-74
2021/11/21 08:14:47;;;;;;;21.47;12.47;;;8.60;97.60;;;;;;4998012;28;20431;-73
2021/11/21 08:17:13;;;;;;;18.90;11.07;;;8.60;97.60;;;;;;5015697;28;20476;-74
2021/11/21 08:19:40;;;;;;;22.53;10.37;;;8.60;97.60;;;;;;5015729;28;20191;-73
2021/11/21 08:22:06;;;;;;;22.30;12.07;;;8.60;97.40;;;;;;4997265;28;20181;-74
2021/11/21 08:24:32;;;;;;;23.47;12.63;;;8.60;97.60;;;;;;5014164;28;20401;-74
2021/11/21 08:26:58;;;;;;;29.17;14.80;;;8.60;97.60;;;;;;4979553;28;20440;-74
2021/11/21 08:29:24;;;;;;;20.10;12.60;;;8.60;97.60;;;;;;5015089;28;20197;-73
2021/11/21 08:31:50;;;;;;;23.67;13.70;;;8.60;97.80;;;;;;5013632;28;20947;-74
2021/11/21 08:34:17;;;;;;;23.53;12.50;;;8.60;98.00;;;;;;4997497;28;20684;-73
2021/11/21 08:36:43;;;;;;;28.60;14.73;;;8.60;98.20;;;;;;5014714;28;20402;-73
2021/11/21 08:39:09;;;;;;;36.07;20.50;;;8.60;98.30;;;;;;5013643;28;20434;-74
2021/11/21 08:41:34;;;;;;;33.80;19.43;;;8.60;98.50;;;;;;5014494;28;20907;-75
2021/11/21 08:44:00;;;;;;;38.57;19.17;;;8.60;98.50;;;;;;4997355;28;20163;-74
2021/11/21 08:46:26;;;;;;;32.90;17.00;;;8.60;98.60;;;;;;5014639;28;20541;-74
2021/11/21 08:48:53;;;;;;;31.00;16.60;;;8.60;98.70;;;;;;5016522;28;20437;-74
2021/11/21 08:51:20;;;;;;;24.40;14.57;;;8.60;98.80;;;;;;5017075;28;20488;-72
2021/11/21 08:53:46;;;;;;;24.27;13.20;;;8.60;99.00;;;;;;5000189;28;20454;-73
2021/11/21 08:56:13;;;;;;;21.17;11.93;;;8.60;99.10;;;;;;5001650;28;20421;-73
2021/11/21 08:58:39;;;;;;;21.83;13.50;;;8.60;99.20;;;;;;5003216;28;20477;-71
2021/11/21 09:01:05;;;;;;;23.97;12.97;;;8.60;99.30;;;;;;5002965;28;20465;-73
2021/11/21 09:03:31;;;;;;;23.47;13.10;;;8.60;99.40;;;;;;4981627;28;20780;-73
2021/11/21 09:05:57;;;;;;;25.43;13.27;;;8.60;99.50;;;;;;4997638;28;20226;-74
2021/11/21 09:08:26;;;;;;;24.67;12.90;;;8.60;99.90;;;;;;5012291;28;20446;-74
2021/11/21 09:10:53;;;;;;;24.90;13.77;;;8.70;99.80;;;;;;5021139;28;20430;-75
2021/11/21 09:13:19;;;;;;;25.13;11.73;;;8.70;99.80;;;;;;5013342;28;20422;-74
2021/11/21 09:15:45;;;;;;;18.47;11.10;;;8.80;99.80;;;;;;4997262;28;20580;-74
2021/11/21 09:18:11;;;;;;;20.53;11.90;;;8.80;99.70;;;;;;5015816;28;20804;-74
2021/11/21 09:20:37;;;;;;;21.70;11.17;;;8.80;99.70;;;;;;5017667;28;20311;-74
2021/11/21 09:23:03;;;;;;;22.97;12.77;;;8.90;99.70;;;;;;5016787;28;20182;-75
2021/11/21 09:25:30;;;;;;;16.70;10.37;;;8.90;99.50;;;;;;4998466;28;20421;-72
2021/11/21 09:27:56;;;;;;;20.90;10.93;;;8.90;99.60;;;;;;5015150;28;20437;-71
2021/11/21 09:30:23;;;;;;;18.57;11.07;;;8.80;99.50;;;;;;4997359;28;20959;-70
2021/11/21 09:32:49;;;;;;;21.63;11.23;;;8.80;99.60;;;;;;5000244;28;20503;-70
2021/11/21 09:35:15;;;;;;;20.80;12.70;;;8.70;99.70;;;;;;5022990;28;20414;-71
2021/11/21 09:37:41;;;;;;;19.03;10.80;;;8.70;99.70;;;;;;5013022;28;20480;-70
2021/11/21 09:40:09;;;;;;;23.30;12.40;;;8.70;99.80;;;;;;5012981;28;20520;-70
2021/11/21 09:42:36;;;;;;;19.03;12.20;;;8.70;99.90;;;;;;5011932;28;20202;-70
2021/11/21 09:45:03;;;;;;;19.77;10.63;;;8.60;99.90;;;;;;5011409;28;20444;-70
2021/11/21 09:47:29;;;;;;;24.03;12.70;;;8.60;99.90;;;;;;5012865;28;20974;-70
2021/11/21 09:50:09;;;;;;;24.87;13.00;;;8.60;99.90;;;;;;5013508;28;20446;-69
2021/11/21 09:52:38;;;;;;;26.10;14.60;;;8.60;99.90;;;;;;5013897;28;20309;-72
2021/11/21 09:55:05;;;;;;;25.83;14.33;;;8.60;99.90;;;;;;4996127;28;20418;-73
2021/11/21 09:57:32;;;;;;;20.83;13.10;;;8.70;99.90;;;;;;5019095;28;20908;-71
2021/11/21 10:00:01;;;;;;;16.77;10.43;;;8.70;99.90;;;;;;5012655;28;20461;-70
2021/11/21 10:02:30;;;;;;;19.73;10.87;;;8.80;99.90;;;;;;4992130;28;20437;-70
2021/11/21 10:05:00;;;;;;;18.47;11.00;;;8.80;99.90;;;;;;5010100;28;20474;-70
2021/11/21 10:07:33;;;;;;;18.40;10.03;;;8.90;99.90;;;;;;5011327;28;20410;-70
2021/11/21 10:10:01;;;;;;;17.63;10.17;;;8.90;99.90;;;;;;5012393;28;20446;-70
2021/11/21 10:12:35;;;;;;;17.40;9.00;;;8.90;99.90;;;;;;4993004;28;20422;-70
2021/11/21 10:15:07;;;;;;;19.80;9.40;;;8.90;99.80;;;;;;5010364;28;20477;-70
2021/11/21 10:17:34;;;;;;;17.60;10.87;;;9.00;99.80;;;;;;5011882;28;20524;-70
2021/11/21 10:20:29;;;;;;;18.27;11.10;;;9.00;99.80;;;;;;5010155;28;20548;-70
2021/11/21 10:23:06;;;;;;;30.03;13.90;;;9.00;99.90;;;;;;5006036;28;20734;-69
2021/11/21 10:25:37;;;;;;;27.30;14.50;;;9.10;99.90;;;;;;5012253;28;20410;-71
2021/11/21 10:28:14;;;;;;;32.40;16.07;;;9.10;99.80;;;;;;5000742;28;20796;-71
2021/11/21 10:31:11;;;;;;;33.00;14.83;;;9.20;99.70;;;;;;5012686;28;20472;-70
2021/11/21 10:33:48;;;;;;;34.87;17.43;;;9.20;99.50;;;;;;4998140;28;20428;-71
2021/11/21 10:36:20;;;;;;;43.97;18.67;;;9.30;99.40;;;;;;4994612;28;20463;-70
2021/11/21 10:38:53;;;;;;;44.03;19.60;;;9.30;99.20;;;;;;5002845;28;20441;-72
2021/11/21 10:41:27;;;;;;;39.85;21.33;;;9.30;99.30;;;;;;5012334;28;20438;-70
2021/11/21 10:44:00;;;;;;;55.00;25.50;;;9.40;99.30;;;;;;5012732;28;20182;-70
2021/11/21 10:46:48;;;;;;;43.40;18.80;;;9.40;99.10;;;;;;4998527;28;20414;-68
2021/11/21 10:49:32;;;;;;;55.67;23.20;;;9.50;98.90;;;;;;4980943;28;20469;-68
2021/11/21 10:51:58;;;;;;;22.97;12.60;;;9.50;98.80;;;;;;4995884;28;20418;-69
2021/11/21 10:54:34;;;;;;;17.97;11.50;;;9.60;98.50;;;;;;5014620;28;20926;-70
2021/11/21 10:57:04;;;;;;;23.00;12.47;;;9.60;98.50;;;;;;5018230;28;20521;-70
2021/11/21 10:59:41;;;;;;;20.47;11.80;;;9.60;98.20;;;;;;4987220;28;20517;-70
2021/11/21 11:02:07;;;;;;;21.17;12.03;;;9.60;98.20;;;;;;5011158;28;20500;-71
2021/11/21 11:04:33;;;;;;;30.20;14.30;;;9.60;98.30;;;;;;4993703;28;20422;-71
2021/11/21 11:07:10;;;;;;;26.40;14.10;;;9.50;98.30;;;;;;5011206;28;20171;-71
2021/11/21 11:09:36;;;;;;;24.23;13.97;;;9.50;98.40;;;;;;5013836;28;20857;-71
2021/11/21 11:12:02;;;;;;;30.43;16.60;;;9.50;98.40;;;;;;5010219;28;20418;-71
2021/11/21 11:14:27;;;;;;;32.43;16.57;;;9.50;98.60;;;;;;5005114;28;20171;-71
2021/11/21 11:16:55;;;;;;;26.67;15.60;;;9.50;98.70;;;;;;5015361;28;20777;-71
2021/11/21 11:19:24;;;;;;;24.73;15.57;;;9.60;98.60;;;;;;5013131;28;20195;-71
2021/11/21 11:21:51;;;;;;;29.63;14.63;;;9.60;98.50;;;;;;5012510;28;20529;-72
2021/11/21 11:24:25;;;;;;;33.20;18.57;;;9.60;98.40;;;;;;5012594;28;20425;-72
2021/11/21 11:27:19;;;;;;;30.13;18.30;;;9.60;98.30;;;;;;5013119;28;20508;-72
2021/11/21 11:29:48;;;;;;;34.37;19.60;;;9.60;98.20;;;;;;4993518;28;20496;-72
2021/11/21 11:32:29;;;;;;;35.57;19.80;;;9.60;98.40;;;;;;5012124;28;20436;-72
2021/11/21 11:34:58;;;;;;;41.17;21.87;;;9.60;98.50;;;;;;5028156;28;20523;-71
2021/11/21 11:37:48;;;;;;;34.53;21.97;;;9.70;98.50;;;;;;5013675;28;20472;-72
2021/11/21 11:40:30;;;;;;;38.97;20.73;;;9.70;98.70;;;;;;5002336;28;20970;-72
2021/11/21 11:42:58;;;;;;;40.73;25.20;;;9.70;98.50;;;;;;4993188;28;20419;-72
2021/11/21 11:46:14;;;;;;;29.43;17.83;;;9.70;98.60;;;;;;4992920;28;20528;-71
2021/11/21 11:48:46;;;;;;;48.17;25.70;;;9.80;98.60;;;;;;4969692;28;20829;-71
2021/11/21 11:51:19;;;;;;;35.30;21.37;;;9.70;98.30;;;;;;5009602;28;20414;-73
2021/11/21 11:53:48;;;;;;;38.23;21.77;;;9.70;98.50;;;;;;4994804;28;20421;-72
2021/11/21 11:56:27;;;;;;;37.43;20.80;;;9.70;98.60;;;;;;5016848;28;20414;-70
2021/11/21 11:59:00;;;;;;;46.30;27.87;;;9.60;98.60;;;;;;4996725;28;20449;-72
2021/11/21 12:01:38;;;;;;;59.27;34.67;;;9.60;98.80;;;;;;5014535;28;20462;-74
2021/11/21 12:04:16;;;;;;;36.97;23.43;;;9.50;98.90;;;;;;5010724;28;20445;-70
2021/11/21 12:06:59;;;;;;;35.47;20.97;;;9.50;99.10;;;;;;5010711;28;20449;-71
2021/11/21 12:09:33;;;;;;;31.97;18.70;;;9.50;99.20;;;;;;5008868;28;20469;-71
2021/11/21 12:12:11;;;;;;;32.80;20.20;;;9.50;99.20;;;;;;4993978;28;20401;-72
2021/11/21 12:14:39;;;;;;;34.00;19.00;;;9.50;99.40;;;;;;5011239;28;20512;-71
2021/11/21 12:17:06;;;;;;;24.47;16.40;;;9.50;99.40;;;;;;5011486;28;20742;-70
2021/11/21 12:19:39;;;;;;;26.87;15.87;;;9.50;99.40;;;;;;5010943;28;20441;-71
2021/11/21 12:22:34;;;;;;;31.30;19.70;;;9.50;99.50;;;;;;5010692;28;20958;-71
2021/11/21 12:25:24;;;;;;;26.97;16.40;;;9.50;99.60;;;;;;4993659;28;20421;-71
2021/11/21 12:27:59;;;;;;;23.77;14.83;;;9.50;99.50;;;;;;4995866;28;20426;-70
2021/11/21 12:30:28;;;;;;;24.70;12.60;;;9.50;99.50;;;;;;5022084;28;20429;-71
2021/11/21 12:33:19;;;;;;;23.23;14.10;;;9.50;99.50;;;;;;5000842;28;20437;-72
2021/11/21 12:35:53;;;;;;;21.63;14.00;;;9.60;99.60;;;;;;4991524;28;20453;-72
2021/11/21 12:38:21;;;;;;;26.53;14.30;;;9.60;99.70;;;;;;5011353;28;20440;-72
2021/11/21 12:40:54;;;;;;;19.23;12.80;;;9.60;99.60;;;;;;5011162;28;20870;-70
2021/11/21 12:43:23;;;;;;;19.00;9.57;;;9.60;99.50;;;;;;5012539;28;20819;-71